Time;durP1;ratioP1;P1;durP2;ratioP2;P2;SDS_P1;SDS_P2;PMS_P1;PMS_P2;Temp;Humidity;BMP_temperature;BMP_pressure;BME280_temperature;BME280_humidity;BME280_pressure;Samples;Min_cycle;Max_cycle;Signal;HPM_P1;HPM_P2
2022/07/30 00:04:34;;;;;;;3.47;1.80;;;;;;;16.54;56.45;96327.22;10299205;28;98118;-65
2022/07/30 00:09:37;;;;;;;3.55;1.60;;;;;;;16.50;56.72;96323.34;10294117;28;96770;-65
2022/07/30 00:14:41;;;;;;;2.60;1.90;;;;;;;16.46;56.85;96323.88;10291339;28;96816;-66
2022/07/30 00:19:44;;;;;;;4.05;2.25;;;;;;;16.39;57.80;96329.03;10297104;28;97858;-65
2022/07/30 00:24:47;;;;;;;3.10;1.83;;;;;;;16.32;57.95;96328.16;10305100;28;96802;-65
2022/07/30 00:29:51;;;;;;;3.58;2.00;;;;;;;16.26;58.55;96313.88;10284532;28;97054;-65
2022/07/30 00:34:54;;;;;;;2.80;2.27;;;;;;;16.18;59.09;96306.84;10289096;28;96814;-65
2022/07/30 00:39:57;;;;;;;2.83;2.08;;;;;;;16.16;59.21;96308.06;10291243;28;97020;-65
2022/07/30 00:45:01;;;;;;;2.67;1.85;;;;;;;16.12;59.39;96301.50;10284879;28;97719;-65
2022/07/30 00:50:06;;;;;;;4.13;2.27;;;;;;;16.03;60.00;96308.66;10290568;28;96816;-65
2022/07/30 00:55:12;;;;;;;4.15;2.10;;;;;;;16.07;59.51;96309.97;10290760;28;97951;-65
2022/07/30 01:00:17;;;;;;;3.33;2.10;;;;;;;15.97;59.61;96314.66;10290763;28;97121;-65
2022/07/30 01:05:20;;;;;;;2.95;1.92;;;;;;;15.90;60.41;96311.94;10290206;28;97592;-64
2022/07/30 01:10:23;;;;;;;4.22;1.98;;;;;;;15.88;59.87;96321.84;10290525;28;96740;-65
2022/07/30 01:15:27;;;;;;;2.78;2.10;;;;;;;15.88;60.34;96309.47;10290252;28;97059;-65
2022/07/30 01:20:50;;;;;;;3.97;2.20;;;;;;;15.88;59.99;96306.84;10290786;28;97471;-65
2022/07/30 01:25:57;;;;;;;3.83;2.30;;;;;;;15.80;61.37;96319.25;10290241;28;96897;-65
2022/07/30 01:31:03;;;;;;;3.85;2.10;;;;;;;15.75;61.51;96306.63;10289524;28;97038;-65
2022/07/30 01:36:10;;;;;;;3.30;2.33;;;;;;;15.63;62.37;96300.97;10287697;28;96846;-65
2022/07/30 01:41:15;;;;;;;2.40;2.00;;;;;;;15.67;61.60;96293.53;10290317;28;96819;-65
2022/07/30 01:46:19;;;;;;;4.28;2.40;;;;;;;15.69;61.99;96283.66;10288970;28;97095;-65
2022/07/30 01:51:24;;;;;;;4.63;2.40;;;;;;;15.60;62.93;96284.69;10289586;28;97448;-65
2022/07/30 01:56:30;;;;;;;4.87;2.60;;;;;;;15.54;62.93;96288.03;10289020;28;97108;-66
2022/07/30 02:01:36;;;;;;;4.45;2.47;;;;;;;15.50;63.73;96290.19;10282513;28;96779;-65
2022/07/30 02:06:45;;;;;;;3.63;2.13;;;;;;;15.43;63.36;96297.97;10289483;28;98868;-67
2022/07/30 02:17:17;;;;;;;4.05;2.22;;;;;;;15.37;64.24;96309.19;10280862;28;97059;-65
2022/07/30 02:22:22;;;;;;;5.43;2.17;;;;;;;15.41;63.81;96305.22;10290131;28;96726;-64
2022/07/30 02:27:30;;;;;;;2.80;1.97;;;;;;;15.38;62.13;96299.50;10288905;28;97656;-65
2022/07/30 02:32:37;;;;;;;3.65;3.08;;;;;;;15.25;63.66;96300.06;10295488;28;96707;-64
2022/07/30 02:37:42;;;;;;;4.20;2.67;;;;;;;15.11;65.93;96305.13;10295274;28;96874;-65
2022/07/30 02:42:50;;;;;;;3.55;2.88;;;;;;;15.17;66.71;96303.59;10293580;28;96916;-64
2022/07/30 02:47:57;;;;;;;3.42;2.30;;;;;;;15.22;65.57;96308.34;10280874;28;97005;-65
2022/07/30 02:53:02;;;;;;;2.80;2.60;;;;;;;15.23;65.63;96308.13;10283177;28;97181;-65
2022/07/30 02:58:07;;;;;;;5.13;2.95;;;;;;;15.24;67.06;96308.97;10296959;28;97408;-66
2022/07/30 03:03:13;;;;;;;3.28;2.38;;;;;;;15.18;66.22;96309.66;10308844;28;97855;-65
2022/07/30 03:08:16;;;;;;;4.28;2.97;;;;;;;15.13;66.92;96312.84;10294253;28;96824;-65
2022/07/30 03:13:24;;;;;;;6.05;3.05;;;;;;;14.96;67.82;96312.13;10291663;28;96781;-65
2022/07/30 03:18:32;;;;;;;4.45;2.78;;;;;;;14.94;67.67;96307.03;10291778;28;97290;-64
2022/07/30 03:23:37;;;;;;;4.82;2.20;;;;;;;14.96;66.42;96322.63;10287718;28;98669;-65
2022/07/30 03:28:43;;;;;;;4.75;2.25;;;;;;;14.84;66.71;96319.56;10290807;28;98578;-65
2022/07/30 03:33:47;;;;;;;3.40;2.53;;;;;;;14.89;67.32;96321.69;10293265;28;96786;-65
2022/07/30 03:38:51;;;;;;;3.38;2.30;;;;;;;14.96;66.87;96333.16;10292652;28;98164;-65
2022/07/30 03:43:56;;;;;;;4.07;2.53;;;;;;;14.94;66.56;96319.38;10293304;28;96813;-65
2022/07/30 03:49:00;;;;;;;2.83;2.17;;;;;;;14.92;66.36;96322.16;10293689;28;97074;-65
2022/07/30 03:54:05;;;;;;;4.77;2.77;;;;;;;14.76;66.88;96314.34;10293625;28;96911;-65
2022/07/30 03:59:16;;;;;;;3.00;2.40;;;;;;;14.55;67.91;96313.13;10287670;28;97047;-65
2022/07/30 04:04:19;;;;;;;3.38;2.72;;;;;;;14.52;68.23;96331.03;10290621;28;96846;-65
2022/07/30 04:09:22;;;;;;;5.10;2.70;;;;;;;14.54;68.26;96334.31;10295230;28;96840;-64
2022/07/30 04:14:27;;;;;;;3.92;3.00;;;;;;;14.52;68.19;96336.28;10300497;28;98715;-64
2022/07/30 04:19:34;;;;;;;4.70;3.03;;;;;;;14.53;69.22;96348.47;10293246;28;97778;-65
2022/07/30 04:24:39;;;;;;;3.70;2.58;;;;;;;14.48;67.72;96348.16;10290572;28;97827;-64
2022/07/30 04:29:43;;;;;;;4.32;2.63;;;;;;;14.35;67.59;96360.00;10291995;28;97515;-65
2022/07/30 04:34:47;;;;;;;4.67;2.73;;;;;;;14.30;67.38;96359.66;10290750;28;96991;-65
2022/07/30 04:39:53;;;;;;;4.45;2.65;;;;;;;14.30;67.81;96370.19;10281469;28;96951;-65
2022/07/30 04:44:57;;;;;;;6.95;3.17;;;;;;;14.40;68.08;96377.06;10291981;28;96950;-65
2022/07/30 04:50:01;;;;;;;6.30;3.45;;;;;;;14.47;68.57;96378.03;10290539;28;96684;-64
2022/07/30 04:55:08;;;;;;;4.00;3.30;;;;;;;14.43;68.50;96389.88;10290978;28;96819;-65
2022/07/30 05:00:13;;;;;;;3.25;2.45;;;;;;;14.32;69.68;96389.25;10284988;28;97132;-64
2022/07/30 05:05:17;;;;;;;3.15;2.50;;;;;;;14.45;69.05;96382.66;10275588;28;97524;-65
2022/07/30 05:10:20;;;;;;;4.77;2.80;;;;;;;14.62;68.74;96386.06;10290201;28;97011;-64
2022/07/30 05:15:24;;;;;;;5.03;2.40;;;;;;;14.75;68.57;96384.53;10290342;28;97743;-64
2022/07/30 05:20:39;;;;;;;4.70;2.72;;;;;;;14.96;68.30;96379.66;10297376;28;97125;-64
2022/07/30 05:25:42;;;;;;;4.50;2.47;;;;;;;15.17;66.83;96379.09;10290152;28;98001;-65
2022/07/30 05:30:46;;;;;;;5.03;2.78;;;;;;;15.36;67.04;96385.72;10290169;28;96892;-65
2022/07/30 05:35:50;;;;;;;3.17;2.30;;;;;;;15.54;65.99;96388.88;10289969;28;97204;-65
2022/07/30 05:40:53;;;;;;;3.50;2.30;;;;;;;15.66;64.95;96394.59;10289846;28;96865;-65
2022/07/30 05:45:57;;;;;;;4.63;2.38;;;;;;;15.84;65.08;96389.03;10289549;28;99304;-65
2022/07/30 05:51:00;;;;;;;6.30;2.70;;;;;;;16.02;64.13;96396.63;10288587;28;99050;-65
2022/07/30 05:56:03;;;;;;;3.58;2.53;;;;;;;16.17;64.37;96405.41;10286633;28;96987;-64
2022/07/30 06:01:07;;;;;;;3.08;2.28;;;;;;;16.32;63.65;96410.69;10286025;28;98192;-65
2022/07/30 06:06:10;;;;;;;3.22;2.35;;;;;;;16.44;62.83;96403.16;10295740;28;97048;-65
2022/07/30 06:11:13;;;;;;;3.30;2.30;;;;;;;16.52;62.12;96402.22;10306792;28;97657;-65
2022/07/30 06:16:18;;;;;;;3.00;2.63;;;;;;;16.66;62.46;96403.25;10308169;28;96759;-65
2022/07/30 06:21:21;;;;;;;3.22;2.13;;;;;;;16.71;61.43;96400.88;10313850;28;96816;-65
2022/07/30 06:26:23;;;;;;;3.08;2.20;;;;;;;16.85;61.73;96400.09;10320346;28;96793;-65
2022/07/30 06:31:28;;;;;;;3.08;2.30;;;;;;;17.03;61.78;96404.19;10302936;28;96841;-65
2022/07/30 06:36:31;;;;;;;5.25;2.83;;;;;;;17.15;63.15;96405.34;10298976;28;98150;-65
2022/07/30 06:41:34;;;;;;;3.58;2.67;;;;;;;17.31;63.38;96401.66;10297275;28;96802;-64
2022/07/30 06:46:38;;;;;;;4.20;2.85;;;;;;;17.41;63.31;96401.38;10298260;28;98076;-65
2022/07/30 06:51:41;;;;;;;4.25;2.88;;;;;;;17.41;63.96;96380.25;10289849;28;96808;-65
2022/07/30 06:56:44;;;;;;;3.17;2.92;;;;;;;17.71;64.17;96408.16;10291639;28;96746;-65
2022/07/30 07:01:49;;;;;;;5.38;3.30;;;;;;;17.96;65.58;96410.50;10292617;28;97148;-64
2022/07/30 07:06:52;;;;;;;5.65;3.35;;;;;;;18.20;65.33;96411.06;10291302;28;98227;-65
2022/07/30 07:11:55;;;;;;;3.95;3.35;;;;;;;18.33;65.81;96411.19;10296931;28;97020;-65
2022/07/30 07:16:59;;;;;;;4.30;3.38;;;;;;;18.42;64.74;96404.72;10301219;28;96860;-65
2022/07/30 07:22:03;;;;;;;5.10;3.47;;;;;;;18.53;66.88;96415.78;10295483;28;96773;-65
2022/07/30 07:27:08;;;;;;;5.40;3.15;;;;;;;18.74;66.69;96414.91;10296549;28;97315;-65
2022/07/30 07:32:18;;;;;;;3.85;3.42;;;;;;;18.88;65.89;96417.47;10294042;28;98801;-65
2022/07/30 07:37:21;;;;;;;3.38;3.05;;;;;;;19.06;65.51;96410.84;10296798;28;97019;-65
2022/07/30 07:42:24;;;;;;;3.35;2.97;;;;;;;19.38;64.50;96416.44;10296310;28;96751;-65
2022/07/30 07:47:29;;;;;;;4.10;2.65;;;;;;;19.51;63.07;96410.41;10293632;28;96985;-65
2022/07/30 07:52:31;;;;;;;;;;;;;;;19.68;62.75;96414.31;10293955;28;96939;-65
2022/07/30 07:57:38;;;;;;;5.53;3.13;;;;;;;19.84;61.53;96407.84;10301339;28;96828;-65
2022/07/30 08:02:43;;;;;;;3.97;3.08;;;;;;;20.00;61.44;96417.22;10298241;28;96740;-65
2022/07/30 08:07:46;;;;;;;3.65;3.05;;;;;;;20.21;60.98;96413.56;10282308;28;97040;-65
2022/07/30 08:12:49;;;;;;;3.25;2.92;;;;;;;20.35;60.63;96412.53;10292744;28;97169;-65
2022/07/30 08:17:53;;;;;;;5.20;3.08;;;;;;;20.52;60.09;96420.09;10299176;28;98119;-65
2022/07/30 08:22:56;;;;;;;5.90;3.15;;;;;;;20.78;59.23;96419.25;10291939;28;97228;-65
2022/07/30 08:28:01;;;;;;;4.22;3.03;;;;;;;20.98;58.00;96397.97;10291381;28;96747;-65
2022/07/30 08:33:06;;;;;;;4.75;2.42;;;;;;;21.30;56.66;96412.13;10293701;28;97294;-65
2022/07/30 08:38:08;;;;;;;5.90;2.08;;;;;;;21.56;54.15;96421.00;10281099;28;96939;-65
2022/07/30 08:43:11;;;;;;;3.50;1.83;;;;;;;21.75;51.80;96418.50;10264270;28;97922;-66
2022/07/30 08:48:20;;;;;;;2.15;1.60;;;;;;;22.02;50.86;96419.94;10294371;28;96745;-65
2022/07/30 08:53:24;;;;;;;3.33;1.80;;;;;;;22.15;50.28;96419.03;10293372;28;96814;-65
2022/07/30 08:58:29;;;;;;;4.50;2.23;;;;;;;22.33;49.16;96420.91;10288351;28;96915;-65
2022/07/30 09:03:34;;;;;;;3.60;1.70;;;;;;;22.50;48.17;96417.75;10285336;28;96886;-65
2022/07/30 09:08:45;;;;;;;3.13;1.67;;;;;;;22.59;46.29;96425.22;10290703;28;97060;-65
2022/07/30 09:13:49;;;;;;;2.72;1.50;;;;;;;22.67;45.52;96424.16;10290028;28;98021;-65
2022/07/30 09:18:55;;;;;;;2.75;1.55;;;;;;;22.82;44.11;96437.09;10290543;28;98715;-65
2022/07/30 09:24:00;;;;;;;2.90;1.50;;;;;;;23.00;43.21;96428.31;10296282;28;96784;-65
2022/07/30 09:29:16;;;;;;;2.08;1.10;;;;;;;23.25;41.82;96430.88;10290533;28;99005;-65
2022/07/30 09:34:28;;;;;;;3.72;1.52;;;;;;;23.32;42.22;96434.31;10290440;28;96787;-65
2022/07/30 09:39:33;;;;;;;4.50;1.30;;;;;;;23.47;41.42;96433.94;10284562;28;97239;-65
2022/07/30 09:44:36;;;;;;;3.53;1.40;;;;;;;23.60;40.55;96437.47;10290486;28;96867;-66
2022/07/30 09:49:41;;;;;;;1.83;1.40;;;;;;;23.62;39.98;96440.72;10291517;28;97107;-65
2022/07/30 09:54:50;;;;;;;3.53;1.08;;;;;;;23.74;39.59;96436.25;10278123;28;96966;-65
2022/07/30 09:59:56;;;;;;;2.92;1.38;;;;;;;23.94;39.15;96419.97;10289794;28;96955;-65
2022/07/30 10:05:11;;;;;;;3.83;1.27;;;;;;;24.15;38.85;96428.53;10279801;28;96825;-65
2022/07/30 10:10:17;;;;;;;2.55;1.30;;;;;;;24.25;38.94;96426.91;10288138;28;96906;-65
2022/07/30 10:15:24;;;;;;;3.17;1.13;;;;;;;24.49;38.46;96427.75;10289164;28;97189;-65
2022/07/30 10:20:31;;;;;;;2.38;1.55;;;;;;;24.65;38.10;96414.75;10298664;28;96899;-65
2022/07/30 10:25:34;;;;;;;2.65;1.20;;;;;;;24.75;37.82;96415.00;10289232;28;98011;-65
2022/07/30 10:30:38;;;;;;;2.38;1.60;;;;;;;24.99;37.94;96412.31;10288788;28;96840;-65
2022/07/30 10:35:42;;;;;;;2.20;1.30;;;;;;;25.00;37.98;96400.56;10288937;28;97026;-65
2022/07/30 10:40:57;;;;;;;1.80;1.30;;;;;;;25.03;38.40;96406.25;10289601;28;97155;-65
2022/07/30 10:46:09;;;;;;;2.28;1.50;;;;;;;25.18;38.44;96392.41;10288816;28;96928;-65
2022/07/30 10:51:39;;;;;;;;;;;;;;;25.42;38.52;96389.63;10294629;28;96785;-65
2022/07/30 10:57:03;;;;;;;2.92;1.50;;;;;;;25.45;37.68;96389.16;10284038;28;97198;-65
2022/07/30 11:02:10;;;;;;;2.03;1.13;;;;;;;25.43;37.78;96391.28;10292002;28;97631;-66
2022/07/30 11:07:28;;;;;;;1.63;0.90;;;;;;;25.73;36.71;96376.88;10284852;28;97615;-66
2022/07/30 11:12:55;;;;;;;2.70;1.25;;;;;;;25.99;36.46;96370.88;10294961;28;96884;-65
2022/07/30 11:18:04;;;;;;;2.47;1.55;;;;;;;26.24;35.66;96361.66;10285363;28;96829;-65
2022/07/30 11:23:37;;;;;;;4.07;1.73;;;;;;;25.98;36.00;96377.31;10305178;28;98422;-65
2022/07/30 11:28:44;;;;;;;3.70;1.73;;;;;;;26.36;35.63;96375.81;10292848;28;98912;-65
2022/07/30 11:33:47;;;;;;;2.78;1.55;;;;;;;26.68;34.85;96375.19;10295030;28;98584;-66
2022/07/30 11:38:55;;;;;;;2.17;1.30;;;;;;;26.96;34.05;96368.06;10293713;28;97809;-65
2022/07/30 11:44:29;;;;;;;1.90;1.38;;;;;;;27.35;33.38;96369.84;10293536;28;96975;-66
2022/07/30 11:49:35;;;;;;;4.15;1.20;;;;;;;27.27;33.50;96373.81;10291988;28;96845;-65
2022/07/30 11:54:51;;;;;;;2.20;1.15;;;;;;;27.55;32.96;96370.09;10293536;28;96812;-65
2022/07/30 11:59:56;;;;;;;2.42;1.13;;;;;;;27.40;33.22;96360.00;10280484;28;96832;-66
2022/07/30 12:04:59;;;;;;;4.15;1.40;;;;;;;27.56;32.94;96352.94;10290043;28;97217;-66
2022/07/30 12:10:13;;;;;;;1.93;1.10;;;;;;;27.47;32.84;96362.47;10292852;28;97043;-65
2022/07/30 12:15:32;;;;;;;2.15;0.93;;;;;;;27.79;32.76;96359.88;10292813;28;96741;-65
2022/07/30 12:20:35;;;;;;;1.98;1.38;;;;;;;28.23;31.60;96359.69;10302498;28;96775;-66
2022/07/30 12:25:39;;;;;;;2.90;1.10;;;;;;;28.43;31.42;96350.22;10294418;28;96759;-65
2022/07/30 12:30:55;;;;;;;1.67;0.85;;;;;;;28.73;30.69;96357.63;10292153;28;96784;-65
2022/07/30 12:36:00;;;;;;;3.22;1.10;;;;;;;28.63;30.83;96356.78;10292165;28;96903;-66
2022/07/30 12:41:04;;;;;;;3.35;1.40;;;;;;;28.56;30.94;96357.00;10291123;28;97323;-66
2022/07/30 12:46:09;;;;;;;3.60;1.50;;;;;;;28.74;30.46;96355.75;10291883;28;96974;-65
2022/07/30 12:51:16;;;;;;;3.05;1.20;;;;;;;28.92;30.26;96349.97;10291537;28;97062;-65
2022/07/30 12:56:22;;;;;;;1.95;1.17;;;;;;;28.78;30.66;96348.81;10291669;28;96773;-66
2022/07/30 13:01:42;;;;;;;3.90;1.05;;;;;;;28.69;30.49;96350.34;10288103;28;97751;-66
2022/07/30 13:07:03;;;;;;;2.10;0.93;;;;;;;28.37;30.63;96348.56;10291561;28;97088;-65
2022/07/30 13:12:08;;;;;;;2.47;1.30;;;;;;;27.89;31.04;96352.97;10291516;28;96782;-66
2022/07/30 13:17:13;;;;;;;2.30;0.82;;;;;;;27.71;31.40;96346.91;10291338;28;96837;-65
2022/07/30 13:22:15;;;;;;;2.17;1.00;;;;;;;27.74;31.24;96357.16;10299399;28;96946;-66
2022/07/30 13:27:18;;;;;;;1.60;1.27;;;;;;;27.81;31.01;96347.00;10289286;28;96832;-66
2022/07/30 13:32:22;;;;;;;3.27;1.27;;;;;;;27.98;30.90;96341.53;10289501;28;96918;-65
2022/07/30 13:37:25;;;;;;;2.42;1.20;;;;;;;28.22;30.73;96341.97;10290231;28;96862;-65
2022/07/30 13:42:40;;;;;;;2.55;1.00;;;;;;;28.48;30.40;96339.50;10290564;28;96791;-65
2022/07/30 13:47:44;;;;;;;1.87;0.93;;;;;;;28.68;29.92;96324.56;10289595;28;97102;-65
2022/07/30 13:52:47;;;;;;;2.70;1.20;;;;;;;28.79;29.81;96328.88;10290055;28;96921;-66
2022/07/30 13:57:50;;;;;;;2.23;1.10;;;;;;;28.86;29.78;96329.44;10289811;28;98102;-66
2022/07/30 14:02:54;;;;;;;3.50;1.10;;;;;;;28.84;30.30;96326.22;10286638;28;96842;-66
2022/07/30 14:07:57;;;;;;;3.80;0.90;;;;;;;28.80;30.15;96314.38;10284175;28;96768;-66
2022/07/30 14:13:00;;;;;;;2.17;1.10;;;;;;;29.35;29.20;96304.13;10289667;28;96796;-65
2022/07/30 14:18:05;;;;;;;1.95;0.93;;;;;;;30.01;28.52;96305.25;10288677;28;98507;-66
2022/07/30 14:23:08;;;;;;;1.90;1.00;;;;;;;30.60;27.77;96311.91;10300917;28;96798;-66
2022/07/30 14:28:11;;;;;;;2.35;0.90;;;;;;;31.76;26.43;96300.03;10296511;28;97240;-66
2022/07/30 14:33:16;;;;;;;3.00;1.13;;;;;;;33.16;24.97;96292.97;10296128;28;97757;-66
2022/07/30 14:38:18;;;;;;;2.78;1.00;;;;;;;34.32;23.96;96292.56;10296072;28;96812;-66
2022/07/30 14:43:23;;;;;;;1.63;0.90;;;;;;;34.96;23.54;96292.72;10295559;28;97684;-66
2022/07/30 14:48:27;;;;;;;1.77;1.13;;;;;;;36.04;22.14;96299.25;10295903;28;97630;-66
2022/07/30 14:53:30;;;;;;;1.75;0.88;;;;;;;37.15;21.01;96293.00;10296031;28;96907;-67
2022/07/30 14:58:33;;;;;;;2.03;0.77;;;;;;;37.81;20.41;96297.56;10296521;28;96749;-67
2022/07/30 15:03:38;;;;;;;2.65;0.90;;;;;;;38.63;19.36;96292.06;10292367;28;97412;-67
2022/07/30 15:08:41;;;;;;;1.90;0.80;;;;;;;39.34;19.08;96290.59;10295366;28;98785;-67
2022/07/30 15:13:44;;;;;;;2.97;1.05;;;;;;;38.89;19.01;96291.19;10284889;28;96690;-67
2022/07/30 15:18:53;;;;;;;1.35;0.80;;;;;;;39.41;18.68;96285.38;10294645;28;97958;-67
2022/07/30 15:23:56;;;;;;;1.75;0.90;;;;;;;40.02;18.46;96283.28;10306286;28;96923;-67
2022/07/30 15:28:59;;;;;;;0.95;0.80;;;;;;;40.46;17.87;96289.09;10294883;28;96785;-67
2022/07/30 15:34:03;;;;;;;1.55;0.90;;;;;;;40.71;16.98;96285.25;10294259;28;97845;-67
2022/07/30 15:39:06;;;;;;;2.75;0.90;;;;;;;40.32;17.61;96282.03;10293742;28;96818;-67
2022/07/30 15:44:09;;;;;;;1.63;0.85;;;;;;;39.85;17.71;96281.50;10293908;28;97145;-67
2022/07/30 15:49:13;;;;;;;1.92;1.20;;;;;;;37.52;19.24;96284.56;10294544;28;96767;-67
2022/07/30 15:54:17;;;;;;;1.08;0.90;;;;;;;35.85;20.25;96274.19;10293711;28;96812;-66
2022/07/30 15:59:24;;;;;;;1.58;0.90;;;;;;;34.28;21.63;96278.00;10292960;28;96850;-66
2022/07/30 16:04:31;;;;;;;3.95;1.00;;;;;;;33.41;22.80;96278.28;10288869;28;96817;-66
2022/07/30 16:09:34;;;;;;;2.45;0.95;;;;;;;32.55;23.62;96278.28;10292067;28;96729;-66
2022/07/30 16:14:37;;;;;;;3.20;1.65;;;;;;;34.58;22.04;96260.34;10284282;28;98045;-66
2022/07/30 16:19:41;;;;;;;1.15;0.80;;;;;;;36.44;20.04;96263.97;10295243;28;96793;-67
2022/07/30 16:24:46;;;;;;;1.55;0.90;;;;;;;37.97;19.35;96259.69;10300456;28;97065;-67
2022/07/30 16:29:51;;;;;;;2.40;1.70;;;;;;;38.60;18.63;96259.97;10292468;28;98148;-67
2022/07/30 16:34:55;;;;;;;1.75;1.00;;;;;;;39.38;17.89;96258.72;10292612;28;96837;-67
2022/07/30 16:39:58;;;;;;;3.25;1.80;;;;;;;39.02;18.12;96262.84;10285889;28;98279;-67
2022/07/30 16:45:02;;;;;;;1.30;1.00;;;;;;;36.76;19.68;96256.59;10294613;28;96796;-67
2022/07/30 16:50:07;;;;;;;3.00;2.22;;;;;;;34.79;21.14;96254.53;10292501;28;98041;-66
2022/07/30 16:55:10;;;;;;;3.53;2.17;;;;;;;33.02;22.66;96265.00;10282931;28;97140;-66
2022/07/30 17:00:14;;;;;;;2.33;1.40;;;;;;;31.70;23.80;96256.06;10293259;28;98391;-66
2022/07/30 17:05:18;;;;;;;3.75;1.58;;;;;;;30.70;24.62;96263.34;10287928;28;97477;-66
2022/07/30 17:10:21;;;;;;;3.22;1.88;;;;;;;30.16;25.51;96253.28;10290379;28;96813;-66
2022/07/30 17:15:29;;;;;;;4.47;1.40;;;;;;;29.56;26.24;96261.91;10290857;28;96928;-66
2022/07/30 17:20:36;;;;;;;1.77;1.17;;;;;;;29.15;26.76;96251.06;10301163;28;96823;-66
2022/07/30 17:25:39;;;;;;;2.55;1.17;;;;;;;30.67;25.23;96253.13;10292415;28;98312;-66
2022/07/30 17:30:42;;;;;;;2.75;1.25;;;;;;;31.46;24.46;96269.47;10291244;28;96802;-66
2022/07/30 17:35:46;;;;;;;1.60;1.02;;;;;;;31.37;25.14;96266.56;10290792;28;97033;-66
2022/07/30 17:40:49;;;;;;;3.67;1.27;;;;;;;30.42;25.77;96268.28;10284257;28;96819;-66
2022/07/30 17:45:52;;;;;;;2.80;1.60;;;;;;;30.00;27.16;96260.56;10289255;28;96813;-66
2022/07/30 17:50:56;;;;;;;3.90;1.23;;;;;;;30.77;26.35;96274.69;10289737;28;97165;-66
2022/07/30 17:55:59;;;;;;;2.45;1.17;;;;;;;32.02;24.99;96280.94;10289751;28;96849;-66
2022/07/30 18:01:02;;;;;;;;;;;;;;;31.94;25.08;96274.28;10292353;28;98569;-66
2022/07/30 18:06:07;;;;;;;;;;;;;;;30.85;26.04;96271.41;10297231;28;97115;-66
2022/07/30 18:11:09;;;;;;;2.85;1.30;;;;;;;29.84;26.70;96278.63;10296573;28;97777;-66
2022/07/30 18:16:15;;;;;;;1.60;1.10;;;;;;;29.03;27.58;96282.78;10296761;28;96840;-65
2022/07/30 18:21:20;;;;;;;2.00;1.10;;;;;;;28.39;28.65;96281.94;10297885;28;96855;-65
2022/07/30 18:26:22;;;;;;;3.90;1.33;;;;;;;27.79;29.29;96282.03;10296559;28;96767;-65
2022/07/30 18:31:25;;;;;;;1.67;1.20;;;;;;;27.42;29.73;96284.63;10296506;28;97067;-66
2022/07/30 18:36:30;;;;;;;2.10;1.10;;;;;;;26.94;30.43;96279.06;10295177;28;96803;-65
2022/07/30 18:41:32;;;;;;;3.50;1.45;;;;;;;26.51;30.99;96283.31;10290849;28;97119;-66
2022/07/30 18:46:35;;;;;;;1.77;1.20;;;;;;;26.14;31.75;96289.22;10295908;28;96820;-66
2022/07/30 18:51:39;;;;;;;3.08;1.00;;;;;;;25.77;32.20;96289.69;10296109;28;96824;-66
2022/07/30 18:56:42;;;;;;;2.22;1.38;;;;;;;25.62;32.41;96296.44;10295381;28;97075;-66
2022/07/30 19:01:45;;;;;;;1.98;1.20;;;;;;;25.47;32.74;96290.78;10292731;28;97194;-65
2022/07/30 19:06:49;;;;;;;4.90;1.48;;;;;;;25.17;33.08;96291.88;10294979;28;96924;-65
2022/07/30 19:11:52;;;;;;;2.20;1.10;;;;;;;24.91;33.45;96300.44;10289406;28;97066;-66
2022/07/30 19:16:55;;;;;;;4.22;1.40;;;;;;;24.71;33.72;96301.63;10294998;28;96737;-65
2022/07/30 19:22:03;;;;;;;5.03;1.45;;;;;;;24.43;34.29;96305.84;10285308;28;98675;-65
2022/07/30 19:27:06;;;;;;;2.35;1.20;;;;;;;24.21;34.52;96318.16;10293564;28;96821;-66
2022/07/30 19:32:15;;;;;;;2.90;1.20;;;;;;;24.00;35.21;96316.84;10294336;28;98037;-65
2022/07/30 19:37:20;;;;;;;1.58;1.00;;;;;;;23.83;35.20;96327.38;10304952;28;96916;-65
2022/07/30 19:42:24;;;;;;;2.63;1.20;;;;;;;23.70;35.76;96334.53;10289178;28;96912;-65
2022/07/30 19:47:28;;;;;;;2.15;1.50;;;;;;;23.45;36.25;96337.38;10293851;28;96858;-65
2022/07/30 19:52:45;;;;;;;4.25;1.58;;;;;;;23.24;36.92;96336.00;10293512;28;96839;-65
2022/07/30 19:57:53;;;;;;;5.00;1.58;;;;;;;23.09;37.25;96340.91;10293376;28;96799;-65
2022/07/30 20:02:56;;;;;;;4.10;1.73;;;;;;;23.00;37.53;96346.53;10293174;28;99137;-65
2022/07/30 20:08:01;;;;;;;2.15;1.60;;;;;;;22.94;37.63;96352.78;10292733;28;96937;-65
2022/07/30 20:13:04;;;;;;;3.15;1.60;;;;;;;22.81;38.09;96352.91;10292844;28;96780;-65
2022/07/30 20:18:08;;;;;;;3.50;1.70;;;;;;;22.71;38.59;96358.75;10292177;28;97023;-65
2022/07/30 20:23:13;;;;;;;4.47;1.67;;;;;;;22.58;38.45;96359.72;10282211;28;98646;-65
2022/07/30 20:28:16;;;;;;;3.85;1.83;;;;;;;22.47;38.56;96359.63;10292985;28;96873;-65
2022/07/30 20:33:20;;;;;;;4.67;2.60;;;;;;;22.36;39.02;96363.78;10289882;28;97108;-65
2022/07/30 20:38:43;;;;;;;3.20;2.00;;;;;;;22.29;39.07;96363.03;10292089;28;97089;-65
2022/07/30 20:43:46;;;;;;;4.72;1.90;;;;;;;22.30;39.15;96364.66;10291761;28;97097;-65
2022/07/30 20:48:54;;;;;;;3.33;1.65;;;;;;;22.25;38.98;96376.78;10291844;28;97617;-64
2022/07/30 20:53:58;;;;;;;3.22;1.70;;;;;;;22.14;39.56;96366.84;10292314;28;96970;-65
2022/07/30 20:59:01;;;;;;;3.28;2.17;;;;;;;22.09;39.46;96369.34;10291420;28;96755;-65
2022/07/30 21:04:04;;;;;;;3.85;1.98;;;;;;;21.99;39.95;96377.00;10291256;28;97107;-65
2022/07/30 21:09:13;;;;;;;4.00;1.90;;;;;;;21.86;40.78;96378.72;10280030;28;97033;-65
2022/07/30 21:14:15;;;;;;;3.58;1.90;;;;;;;21.60;41.83;96378.88;10279368;28;97167;-65
2022/07/30 21:19:20;;;;;;;3.45;1.65;;;;;;;21.40;41.44;96387.78;10277209;28;97109;-65
2022/07/30 21:24:26;;;;;;;2.03;1.83;;;;;;;21.29;42.49;96388.44;10285576;28;96903;-65
2022/07/30 21:29:29;;;;;;;5.00;2.10;;;;;;;21.12;41.98;96383.59;10282871;28;97348;-65
2022/07/30 21:34:32;;;;;;;2.83;1.80;;;;;;;20.90;43.14;96391.03;10295704;28;96958;-65
2022/07/30 21:39:45;;;;;;;3.17;1.83;;;;;;;20.82;43.38;96383.28;10283036;28;96840;-65
2022/07/30 21:44:48;;;;;;;;;;;;;;;20.64;42.37;96386.59;10281962;28;96974;-65
2022/07/30 21:49:54;;;;;;;3.00;1.90;;;;;;;20.57;43.42;96388.44;10278181;28;96927;-65
2022/07/30 21:54:58;;;;;;;3.20;1.90;;;;;;;20.44;43.29;96389.25;10273254;28;96819;-65
2022/07/30 22:00:09;;;;;;;3.92;1.95;;;;;;;20.18;44.05;96398.06;10272522;28;97566;-65
2022/07/30 22:05:12;;;;;;;3.58;2.10;;;;;;;20.05;45.60;96398.06;10288907;28;97525;-65
2022/07/30 22:10:18;;;;;;;3.38;1.90;;;;;;;19.94;45.87;96399.47;10289787;28;96892;-65
2022/07/30 22:15:23;;;;;;;3.00;1.80;;;;;;;19.76;46.35;96403.50;10289609;28;96707;-65
2022/07/30 22:20:30;;;;;;;3.40;2.00;;;;;;;19.63;45.36;96411.44;10287174;28;97349;-65
2022/07/30 22:25:34;;;;;;;3.60;2.00;;;;;;;19.58;45.56;96401.44;10287550;28;98705;-65
2022/07/30 22:30:47;;;;;;;4.38;1.95;;;;;;;19.53;45.97;96411.81;10288705;28;96884;-65
2022/07/30 22:35:50;;;;;;;3.40;1.83;;;;;;;19.59;45.61;96415.50;10288176;28;96822;-65
2022/07/30 22:40:54;;;;;;;3.08;1.58;;;;;;;19.57;45.61;96420.19;10303408;28;97148;-65
2022/07/30 22:45:58;;;;;;;2.40;1.70;;;;;;;19.46;46.19;96410.97;10301199;28;97085;-65
2022/07/30 22:51:02;;;;;;;2.58;1.60;;;;;;;19.41;45.97;96408.91;10297883;28;96737;-65
2022/07/30 22:56:06;;;;;;;3.25;1.50;;;;;;;19.31;46.25;96405.81;10303619;28;96821;-65
2022/07/30 23:01:17;;;;;;;2.55;1.55;;;;;;;19.28;46.90;96408.91;10302831;28;97031;-65
2022/07/30 23:06:20;;;;;;;3.45;1.63;;;;;;;19.22;46.26;96409.69;10294618;28;97702;-64
2022/07/30 23:11:25;;;;;;;3.30;1.60;;;;;;;19.25;45.75;96406.63;10295195;28;96894;-64
2022/07/30 23:16:40;;;;;;;3.08;1.77;;;;;;;19.36;45.78;96406.06;10294487;28;96826;-65
2022/07/30 23:21:51;;;;;;;3.88;1.52;;;;;;;19.34;46.40;96413.38;10298482;28;97567;-65
2022/07/30 23:26:56;;;;;;;2.85;1.70;;;;;;;19.28;45.81;96403.59;10294964;28;96854;-65
2022/07/30 23:31:58;;;;;;;2.88;1.48;;;;;;;19.15;46.36;96403.53;10294268;28;97001;-65
2022/07/30 23:37:03;;;;;;;3.53;1.95;;;;;;;18.97;47.46;96401.44;10281183;28;96739;-65
2022/07/30 23:42:08;;;;;;;2.90;1.80;;;;;;;18.73;48.22;96410.63;10292540;28;96920;-65
2022/07/30 23:47:11;;;;;;;3.65;1.55;;;;;;;18.61;48.02;96407.72;10293807;28;97150;-65
2022/07/30 23:52:14;;;;;;;5.45;2.08;;;;;;;18.61;48.50;96403.22;10293816;28;97042;-65